TAFOR
Diposting tanggal: 10 Juni 2019

Pukul : 00 - 12 UTC

Isi :

TAF WAGI 072300Z 0800/0812 13005KT 9000 SCT014=